sensor_id;sensor_type;location;lat;lon;timestamp;P1;durP1;ratioP1;P2;durP2;ratioP2
62475;SDS011;50739;45.670;11.936;2024-01-27T00:03:35;94.20;;;51.80;;
62475;SDS011;50739;45.670;11.936;2024-01-27T00:08:37;91.30;;;50.77;;
62475;SDS011;50739;45.670;11.936;2024-01-27T00:13:40;94.28;;;50.30;;
62475;SDS011;50739;45.670;11.936;2024-01-27T00:18:45;86.17;;;48.17;;
62475;SDS011;50739;45.670;11.936;2024-01-27T00:23:48;85.63;;;47.17;;
62475;SDS011;50739;45.670;11.936;2024-01-27T00:28:50;83.05;;;46.22;;
62475;SDS011;50739;45.670;11.936;2024-01-27T00:33:54;87.30;;;47.40;;
62475;SDS011;50739;45.670;11.936;2024-01-27T00:38:56;85.30;;;46.20;;
62475;SDS011;50739;45.670;11.936;2024-01-27T00:43:59;81.75;;;45.75;;
62475;SDS011;50739;45.670;11.936;2024-01-27T00:49:03;83.47;;;44.83;;
62475;SDS011;50739;45.670;11.936;2024-01-27T00:54:05;82.60;;;44.47;;
62475;SDS011;50739;45.670;11.936;2024-01-27T00:59:07;81.55;;;44.72;;
62475;SDS011;50739;45.670;11.936;2024-01-27T01:04:11;79.15;;;43.17;;
62475;SDS011;50739;45.670;11.936;2024-01-27T01:09:13;74.32;;;41.33;;
62475;SDS011;50739;45.670;11.936;2024-01-27T01:14:16;77.90;;;44.93;;
62475;SDS011;50739;45.670;11.936;2024-01-27T01:19:20;78.90;;;42.58;;
62475;SDS011;50739;45.670;11.936;2024-01-27T01:24:22;72.50;;;41.97;;
62475;SDS011;50739;45.670;11.936;2024-01-27T01:29:25;74.43;;;42.90;;
62475;SDS011;50739;45.670;11.936;2024-01-27T01:34:29;74.88;;;42.88;;
62475;SDS011;50739;45.670;11.936;2024-01-27T01:39:32;72.82;;;42.45;;
62475;SDS011;50739;45.670;11.936;2024-01-27T01:44:34;77.03;;;42.87;;
62475;SDS011;50739;45.670;11.936;2024-01-27T01:49:38;76.47;;;42.75;;
62475;SDS011;50739;45.670;11.936;2024-01-27T01:54:41;93.25;;;50.42;;
62475;SDS011;50739;45.670;11.936;2024-01-27T01:59:43;89.90;;;49.57;;
62475;SDS011;50739;45.670;11.936;2024-01-27T02:04:47;96.75;;;51.83;;
62475;SDS011;50739;45.670;11.936;2024-01-27T02:09:49;90.63;;;50.88;;
62475;SDS011;50739;45.670;11.936;2024-01-27T02:14:52;88.27;;;48.93;;
62475;SDS011;50739;45.670;11.936;2024-01-27T02:19:56;88.25;;;48.30;;
62475;SDS011;50739;45.670;11.936;2024-01-27T02:24:59;88.25;;;49.03;;
62475;SDS011;50739;45.670;11.936;2024-01-27T02:30:02;93.28;;;51.45;;
62475;SDS011;50739;45.670;11.936;2024-01-27T02:35:05;88.88;;;47.10;;
62475;SDS011;50739;45.670;11.936;2024-01-27T02:40:10;74.35;;;42.13;;
62475;SDS011;50739;45.670;11.936;2024-01-27T02:45:13;71.80;;;40.97;;
62475;SDS011;50739;45.670;11.936;2024-01-27T02:50:15;74.05;;;40.33;;
62475;SDS011;50739;45.670;11.936;2024-01-27T02:55:19;66.45;;;38.17;;
62475;SDS011;50739;45.670;11.936;2024-01-27T03:00:22;67.72;;;38.05;;
62475;SDS011;50739;45.670;11.936;2024-01-27T03:05:24;67.32;;;37.20;;
62475;SDS011;50739;45.670;11.936;2024-01-27T03:10:28;67.10;;;36.70;;
62475;SDS011;50739;45.670;11.936;2024-01-27T03:15:31;64.63;;;38.20;;
62475;SDS011;50739;45.670;11.936;2024-01-27T03:20:34;61.40;;;37.03;;
62475;SDS011;50739;45.670;11.936;2024-01-27T03:25:38;60.07;;;36.43;;
62475;SDS011;50739;45.670;11.936;2024-01-27T03:30:40;59.13;;;34.63;;
62475;SDS011;50739;45.670;11.936;2024-01-27T03:35:42;60.53;;;35.42;;
62475;SDS011;50739;45.670;11.936;2024-01-27T03:40:46;66.90;;;38.63;;
62475;SDS011;50739;45.670;11.936;2024-01-27T03:45:48;70.33;;;40.87;;
62475;SDS011;50739;45.670;11.936;2024-01-27T03:50:51;68.85;;;40.72;;
62475;SDS011;50739;45.670;11.936;2024-01-27T03:55:55;72.63;;;39.83;;
62475;SDS011;50739;45.670;11.936;2024-01-27T04:00:59;72.72;;;43.03;;
62475;SDS011;50739;45.670;11.936;2024-01-27T04:06:01;68.75;;;39.15;;
62475;SDS011;50739;45.670;11.936;2024-01-27T04:11:05;70.47;;;39.70;;
62475;SDS011;50739;45.670;11.936;2024-01-27T04:16:08;74.05;;;41.45;;
62475;SDS011;50739;45.670;11.936;2024-01-27T04:21:11;73.78;;;40.60;;
62475;SDS011;50739;45.670;11.936;2024-01-27T04:26:15;85.17;;;45.70;;
62475;SDS011;50739;45.670;11.936;2024-01-27T04:31:17;84.03;;;45.53;;
62475;SDS011;50739;45.670;11.936;2024-01-27T04:36:26;75.57;;;43.22;;
62475;SDS011;50739;45.670;11.936;2024-01-27T04:41:31;79.40;;;45.23;;
62475;SDS011;50739;45.670;11.936;2024-01-27T04:46:33;91.63;;;52.80;;
62475;SDS011;50739;45.670;11.936;2024-01-27T04:51:35;93.20;;;53.00;;
62475;SDS011;50739;45.670;11.936;2024-01-27T04:56:39;92.47;;;53.45;;
62475;SDS011;50739;45.670;11.936;2024-01-27T05:01:43;89.38;;;51.90;;
62475;SDS011;50739;45.670;11.936;2024-01-27T05:06:47;84.28;;;48.40;;
62475;SDS011;50739;45.670;11.936;2024-01-27T05:11:51;92.40;;;51.40;;
62475;SDS011;50739;45.670;11.936;2024-01-27T05:16:54;81.03;;;49.33;;
62475;SDS011;50739;45.670;11.936;2024-01-27T05:21:56;84.18;;;49.00;;
62475;SDS011;50739;45.670;11.936;2024-01-27T05:27:00;84.97;;;49.63;;
62475;SDS011;50739;45.670;11.936;2024-01-27T05:32:03;85.88;;;50.92;;
62475;SDS011;50739;45.670;11.936;2024-01-27T05:37:06;85.57;;;50.55;;
62475;SDS011;50739;45.670;11.936;2024-01-27T05:42:09;84.13;;;49.20;;
62475;SDS011;50739;45.670;11.936;2024-01-27T05:47:12;84.37;;;49.63;;
62475;SDS011;50739;45.670;11.936;2024-01-27T05:52:14;85.90;;;51.53;;
62475;SDS011;50739;45.670;11.936;2024-01-27T05:57:18;80.00;;;47.88;;
62475;SDS011;50739;45.670;11.936;2024-01-27T06:02:21;74.63;;;45.92;;
62475;SDS011;50739;45.670;11.936;2024-01-27T06:07:23;80.32;;;48.47;;
62475;SDS011;50739;45.670;11.936;2024-01-27T06:12:27;76.43;;;46.70;;
62475;SDS011;50739;45.670;11.936;2024-01-27T06:17:29;79.45;;;46.35;;
62475;SDS011;50739;45.670;11.936;2024-01-27T06:22:32;73.88;;;44.33;;
62475;SDS011;50739;45.670;11.936;2024-01-27T06:27:36;80.53;;;47.13;;
62475;SDS011;50739;45.670;11.936;2024-01-27T06:32:38;82.90;;;47.40;;
62475;SDS011;50739;45.670;11.936;2024-01-27T06:37:41;90.68;;;53.88;;
62475;SDS011;50739;45.670;11.936;2024-01-27T06:42:44;77.32;;;48.38;;
62475;SDS011;50739;45.670;11.936;2024-01-27T06:47:47;171.75;;;85.70;;
62475;SDS011;50739;45.670;11.936;2024-01-27T06:52:49;92.60;;;51.72;;
62475;SDS011;50739;45.670;11.936;2024-01-27T06:57:54;82.32;;;47.67;;
62475;SDS011;50739;45.670;11.936;2024-01-27T07:02:57;79.50;;;47.08;;
62475;SDS011;50739;45.670;11.936;2024-01-27T07:07:59;77.73;;;46.57;;
62475;SDS011;50739;45.670;11.936;2024-01-27T07:13:04;80.40;;;47.45;;
62475;SDS011;50739;45.670;11.936;2024-01-27T07:18:08;84.23;;;49.37;;
62475;SDS011;50739;45.670;11.936;2024-01-27T07:23:11;79.20;;;46.53;;
62475;SDS011;50739;45.670;11.936;2024-01-27T07:28:14;72.32;;;42.35;;
62475;SDS011;50739;45.670;11.936;2024-01-27T07:33:19;73.50;;;42.33;;
62475;SDS011;50739;45.670;11.936;2024-01-27T07:38:21;71.47;;;42.75;;
62475;SDS011;50739;45.670;11.936;2024-01-27T07:43:25;71.82;;;43.15;;
62475;SDS011;50739;45.670;11.936;2024-01-27T07:48:27;64.53;;;40.70;;
62475;SDS011;50739;45.670;11.936;2024-01-27T07:53:30;66.80;;;40.97;;
62475;SDS011;50739;45.670;11.936;2024-01-27T07:58:33;70.87;;;42.83;;
62475;SDS011;50739;45.670;11.936;2024-01-27T08:03:36;70.30;;;42.63;;
62475;SDS011;50739;45.670;11.936;2024-01-27T08:08:38;71.03;;;43.30;;
62475;SDS011;50739;45.670;11.936;2024-01-27T08:13:42;74.23;;;43.97;;
62475;SDS011;50739;45.670;11.936;2024-01-27T08:18:44;74.20;;;45.77;;
62475;SDS011;50739;45.670;11.936;2024-01-27T08:23:47;75.22;;;45.80;;
62475;SDS011;50739;45.670;11.936;2024-01-27T08:28:50;74.83;;;46.47;;
62475;SDS011;50739;45.670;11.936;2024-01-27T08:33:55;72.20;;;45.13;;
62475;SDS011;50739;45.670;11.936;2024-01-27T08:38:57;73.25;;;45.17;;
62475;SDS011;50739;45.670;11.936;2024-01-27T08:44:01;76.78;;;45.50;;
62475;SDS011;50739;45.670;11.936;2024-01-27T08:49:04;67.05;;;40.80;;
62475;SDS011;50739;45.670;11.936;2024-01-27T08:54:06;69.28;;;41.95;;
62475;SDS011;50739;45.670;11.936;2024-01-27T08:59:10;70.00;;;42.65;;
62475;SDS011;50739;45.670;11.936;2024-01-27T09:04:12;73.15;;;43.60;;
62475;SDS011;50739;45.670;11.936;2024-01-27T09:09:14;71.47;;;42.65;;
62475;SDS011;50739;45.670;11.936;2024-01-27T09:14:18;70.82;;;40.85;;
62475;SDS011;50739;45.670;11.936;2024-01-27T09:19:21;65.50;;;39.97;;
62475;SDS011;50739;45.670;11.936;2024-01-27T09:24:23;66.40;;;40.03;;
62475;SDS011;50739;45.670;11.936;2024-01-27T09:29:27;70.57;;;40.13;;
62475;SDS011;50739;45.670;11.936;2024-01-27T09:34:30;67.40;;;39.63;;
62475;SDS011;50739;45.670;11.936;2024-01-27T09:39:33;66.78;;;40.05;;
62475;SDS011;50739;45.670;11.936;2024-01-27T09:44:36;63.30;;;39.83;;
62475;SDS011;50739;45.670;11.936;2024-01-27T09:49:40;68.20;;;40.15;;
62475;SDS011;50739;45.670;11.936;2024-01-27T09:54:44;69.70;;;40.28;;
62475;SDS011;50739;45.670;11.936;2024-01-27T09:59:48;75.75;;;41.97;;
62475;SDS011;50739;45.670;11.936;2024-01-27T10:04:53;70.13;;;41.10;;
62475;SDS011;50739;45.670;11.936;2024-01-27T10:09:55;64.30;;;36.42;;
62475;SDS011;50739;45.670;11.936;2024-01-27T10:14:59;69.55;;;37.20;;
62475;SDS011;50739;45.670;11.936;2024-01-27T10:20:03;66.30;;;35.93;;
62475;SDS011;50739;45.670;11.936;2024-01-27T10:25:08;70.13;;;37.67;;
62475;SDS011;50739;45.670;11.936;2024-01-27T10:30:16;70.97;;;37.80;;
62475;SDS011;50739;45.670;11.936;2024-01-27T10:35:20;68.80;;;38.03;;
62475;SDS011;50739;45.670;11.936;2024-01-27T10:40:23;71.18;;;38.08;;
62475;SDS011;50739;45.670;11.936;2024-01-27T10:45:27;68.73;;;36.90;;
62475;SDS011;50739;45.670;11.936;2024-01-27T10:50:36;70.22;;;37.38;;
62475;SDS011;50739;45.670;11.936;2024-01-27T10:55:39;73.50;;;36.13;;
62475;SDS011;50739;45.670;11.936;2024-01-27T11:00:45;69.70;;;35.80;;
62475;SDS011;50739;45.670;11.936;2024-01-27T11:05:49;68.45;;;36.42;;
62475;SDS011;50739;45.670;11.936;2024-01-27T11:10:54;74.35;;;37.00;;
62475;SDS011;50739;45.670;11.936;2024-01-27T11:15:58;78.85;;;39.17;;
62475;SDS011;50739;45.670;11.936;2024-01-27T11:21:00;76.07;;;38.00;;
62475;SDS011;50739;45.670;11.936;2024-01-27T11:26:03;80.00;;;39.33;;
62475;SDS011;50739;45.670;11.936;2024-01-27T11:31:08;80.25;;;38.63;;
62475;SDS011;50739;45.670;11.936;2024-01-27T11:36:18;77.43;;;37.03;;
62475;SDS011;50739;45.670;11.936;2024-01-27T11:41:28;80.88;;;37.90;;
62475;SDS011;50739;45.670;11.936;2024-01-27T11:46:32;82.72;;;38.42;;
62475;SDS011;50739;45.670;11.936;2024-01-27T11:51:35;88.22;;;40.00;;
62475;SDS011;50739;45.670;11.936;2024-01-27T11:56:37;82.32;;;39.88;;
62475;SDS011;50739;45.670;11.936;2024-01-27T12:01:41;86.13;;;39.53;;
62475;SDS011;50739;45.670;11.936;2024-01-27T12:06:44;82.63;;;40.90;;
62475;SDS011;50739;45.670;11.936;2024-01-27T12:11:46;84.90;;;38.45;;
62475;SDS011;50739;45.670;11.936;2024-01-27T12:16:50;86.28;;;39.70;;
62475;SDS011;50739;45.670;11.936;2024-01-27T12:21:54;86.80;;;39.40;;
62475;SDS011;50739;45.670;11.936;2024-01-27T12:26:56;87.03;;;39.47;;
62475;SDS011;50739;45.670;11.936;2024-01-27T12:32:00;89.65;;;41.65;;
62475;SDS011;50739;45.670;11.936;2024-01-27T12:37:02;94.38;;;42.92;;
62475;SDS011;50739;45.670;11.936;2024-01-27T12:42:05;96.75;;;43.83;;
62475;SDS011;50739;45.670;11.936;2024-01-27T12:47:09;140.60;;;58.00;;
62475;SDS011;50739;45.670;11.936;2024-01-27T12:52:11;103.00;;;44.38;;
62475;SDS011;50739;45.670;11.936;2024-01-27T12:57:14;137.23;;;59.53;;
62475;SDS011;50739;45.670;11.936;2024-01-27T13:02:19;84.05;;;38.45;;
62475;SDS011;50739;45.670;11.936;2024-01-27T13:07:21;81.47;;;36.97;;
62475;SDS011;50739;45.670;11.936;2024-01-27T13:12:24;94.50;;;43.17;;
62475;SDS011;50739;45.670;11.936;2024-01-27T13:17:28;102.88;;;49.95;;
62475;SDS011;50739;45.670;11.936;2024-01-27T13:22:30;86.40;;;40.20;;
62475;SDS011;50739;45.670;11.936;2024-01-27T13:27:33;92.68;;;41.83;;
62475;SDS011;50739;45.670;11.936;2024-01-27T13:32:36;80.00;;;37.15;;
62475;SDS011;50739;45.670;11.936;2024-01-27T13:37:39;90.47;;;40.08;;
62475;SDS011;50739;45.670;11.936;2024-01-27T13:42:43;85.40;;;39.65;;
62475;SDS011;50739;45.670;11.936;2024-01-27T13:47:47;88.40;;;40.78;;
62475;SDS011;50739;45.670;11.936;2024-01-27T13:52:49;84.90;;;41.43;;
62475;SDS011;50739;45.670;11.936;2024-01-27T13:57:51;90.93;;;42.28;;
62475;SDS011;50739;45.670;11.936;2024-01-27T14:02:56;94.07;;;43.90;;
62475;SDS011;50739;45.670;11.936;2024-01-27T14:07:58;86.68;;;42.80;;
62475;SDS011;50739;45.670;11.936;2024-01-27T14:13:01;84.83;;;41.43;;
62475;SDS011;50739;45.670;11.936;2024-01-27T14:18:06;84.07;;;40.63;;
62475;SDS011;50739;45.670;11.936;2024-01-27T14:23:10;79.22;;;38.88;;
62475;SDS011;50739;45.670;11.936;2024-01-27T14:28:12;81.45;;;40.63;;
62475;SDS011;50739;45.670;11.936;2024-01-27T14:33:16;81.97;;;40.20;;
62475;SDS011;50739;45.670;11.936;2024-01-27T14:38:21;79.80;;;42.15;;
62475;SDS011;50739;45.670;11.936;2024-01-27T14:43:23;84.20;;;42.92;;
62475;SDS011;50739;45.670;11.936;2024-01-27T14:48:28;86.88;;;44.80;;
62475;SDS011;50739;45.670;11.936;2024-01-27T14:53:31;88.38;;;43.70;;
62475;SDS011;50739;45.670;11.936;2024-01-27T14:58:33;84.90;;;42.42;;
62475;SDS011;50739;45.670;11.936;2024-01-27T15:03:37;88.85;;;39.95;;
62475;SDS011;50739;45.670;11.936;2024-01-27T15:08:39;89.83;;;41.20;;
62475;SDS011;50739;45.670;11.936;2024-01-27T15:13:42;93.00;;;42.45;;
62475;SDS011;50739;45.670;11.936;2024-01-27T15:18:46;94.77;;;43.53;;
62475;SDS011;50739;45.670;11.936;2024-01-27T15:23:50;93.03;;;44.92;;
62475;SDS011;50739;45.670;11.936;2024-01-27T15:28:53;92.73;;;43.53;;
62475;SDS011;50739;45.670;11.936;2024-01-27T15:33:57;90.22;;;42.40;;
62475;SDS011;50739;45.670;11.936;2024-01-27T15:38:59;90.40;;;43.30;;
62475;SDS011;50739;45.670;11.936;2024-01-27T15:44:01;92.80;;;45.27;;
62475;SDS011;50739;45.670;11.936;2024-01-27T15:49:05;111.40;;;50.97;;
62475;SDS011;50739;45.670;11.936;2024-01-27T15:54:08;95.05;;;44.58;;
62475;SDS011;50739;45.670;11.936;2024-01-27T15:59:10;88.68;;;45.13;;
62475;SDS011;50739;45.670;11.936;2024-01-27T16:04:15;88.80;;;42.87;;
62475;SDS011;50739;45.670;11.936;2024-01-27T16:09:17;88.85;;;44.33;;
62475;SDS011;50739;45.670;11.936;2024-01-27T16:14:20;88.15;;;43.42;;
62475;SDS011;50739;45.670;11.936;2024-01-27T16:19:24;79.53;;;43.13;;
62475;SDS011;50739;45.670;11.936;2024-01-27T16:24:26;79.80;;;43.67;;
62475;SDS011;50739;45.670;11.936;2024-01-27T16:29:29;72.65;;;36.13;;
62475;SDS011;50739;45.670;11.936;2024-01-27T16:34:32;80.20;;;40.97;;
62475;SDS011;50739;45.670;11.936;2024-01-27T16:39:35;79.95;;;41.72;;
62475;SDS011;50739;45.670;11.936;2024-01-27T16:44:37;89.07;;;45.63;;
62475;SDS011;50739;45.670;11.936;2024-01-27T16:49:41;82.07;;;42.33;;
62475;SDS011;50739;45.670;11.936;2024-01-27T16:54:43;92.40;;;45.93;;
62475;SDS011;50739;45.670;11.936;2024-01-27T16:59:45;94.35;;;47.78;;
62475;SDS011;50739;45.670;11.936;2024-01-27T17:04:51;106.07;;;50.77;;
62475;SDS011;50739;45.670;11.936;2024-01-27T17:09:53;105.38;;;52.20;;
62475;SDS011;50739;45.670;11.936;2024-01-27T17:14:55;100.03;;;49.63;;
62475;SDS011;50739;45.670;11.936;2024-01-27T17:20:07;93.80;;;51.40;;
62475;SDS011;50739;45.670;11.936;2024-01-27T17:25:10;89.07;;;49.27;;
62475;SDS011;50739;45.670;11.936;2024-01-27T17:30:12;91.88;;;49.90;;
62475;SDS011;50739;45.670;11.936;2024-01-27T17:35:25;86.00;;;48.03;;
62475;SDS011;50739;45.670;11.936;2024-01-27T17:40:27;96.82;;;50.55;;
62475;SDS011;50739;45.670;11.936;2024-01-27T17:45:30;88.55;;;49.10;;
62475;SDS011;50739;45.670;11.936;2024-01-27T17:50:34;83.57;;;46.97;;
62475;SDS011;50739;45.670;11.936;2024-01-27T17:55:36;85.50;;;47.63;;
62475;SDS011;50739;45.670;11.936;2024-01-27T18:00:39;88.47;;;48.60;;
62475;SDS011;50739;45.670;11.936;2024-01-27T18:05:43;103.97;;;52.58;;
62475;SDS011;50739;45.670;11.936;2024-01-27T18:10:50;106.27;;;57.07;;
62475;SDS011;50739;45.670;11.936;2024-01-27T18:15:52;107.47;;;58.58;;
62475;SDS011;50739;45.670;11.936;2024-01-27T18:20:56;108.38;;;59.70;;
62475;SDS011;50739;45.670;11.936;2024-01-27T18:25:59;110.53;;;58.90;;
62475;SDS011;50739;45.670;11.936;2024-01-27T18:31:01;102.45;;;58.33;;
62475;SDS011;50739;45.670;11.936;2024-01-27T18:36:05;103.23;;;57.87;;
62475;SDS011;50739;45.670;11.936;2024-01-27T18:41:07;111.77;;;62.37;;
62475;SDS011;50739;45.670;11.936;2024-01-27T18:46:10;108.85;;;59.63;;
62475;SDS011;50739;45.670;11.936;2024-01-27T18:51:14;116.65;;;64.07;;
62475;SDS011;50739;45.670;11.936;2024-01-27T18:56:17;120.07;;;65.63;;
62475;SDS011;50739;45.670;11.936;2024-01-27T19:01:19;119.80;;;65.03;;
62475;SDS011;50739;45.670;11.936;2024-01-27T19:06:24;117.72;;;65.20;;
62475;SDS011;50739;45.670;11.936;2024-01-27T19:11:26;121.28;;;65.85;;
62475;SDS011;50739;45.670;11.936;2024-01-27T19:16:28;114.20;;;65.72;;
62475;SDS011;50739;45.670;11.936;2024-01-27T19:21:32;127.45;;;69.50;;
62475;SDS011;50739;45.670;11.936;2024-01-27T19:26:35;117.97;;;64.93;;
62475;SDS011;50739;45.670;11.936;2024-01-27T19:31:37;115.93;;;65.40;;
62475;SDS011;50739;45.670;11.936;2024-01-27T19:36:41;116.55;;;69.63;;
62475;SDS011;50739;45.670;11.936;2024-01-27T19:41:43;111.27;;;64.27;;
62475;SDS011;50739;45.670;11.936;2024-01-27T19:46:45;122.57;;;66.30;;
62475;SDS011;50739;45.670;11.936;2024-01-27T19:51:52;122.00;;;70.47;;
62475;SDS011;50739;45.670;11.936;2024-01-27T19:56:54;135.80;;;72.13;;
62475;SDS011;50739;45.670;11.936;2024-01-27T20:01:56;121.07;;;68.30;;
62475;SDS011;50739;45.670;11.936;2024-01-27T20:07:00;120.40;;;66.68;;
62475;SDS011;50739;45.670;11.936;2024-01-27T20:12:03;115.95;;;65.53;;
62475;SDS011;50739;45.670;11.936;2024-01-27T20:17:07;123.68;;;66.72;;
62475;SDS011;50739;45.670;11.936;2024-01-27T20:22:11;110.10;;;62.95;;
62475;SDS011;50739;45.670;11.936;2024-01-27T20:27:14;114.90;;;64.33;;
62475;SDS011;50739;45.670;11.936;2024-01-27T20:32:16;119.80;;;65.07;;
62475;SDS011;50739;45.670;11.936;2024-01-27T20:37:20;115.05;;;66.32;;
62475;SDS011;50739;45.670;11.936;2024-01-27T20:42:22;122.40;;;68.83;;
62475;SDS011;50739;45.670;11.936;2024-01-27T20:47:25;116.22;;;65.30;;
62475;SDS011;50739;45.670;11.936;2024-01-27T20:52:29;120.25;;;65.20;;
62475;SDS011;50739;45.670;11.936;2024-01-27T20:57:31;126.13;;;67.70;;
62475;SDS011;50739;45.670;11.936;2024-01-27T21:02:33;118.37;;;63.97;;
62475;SDS011;50739;45.670;11.936;2024-01-27T21:07:37;121.78;;;64.80;;
62475;SDS011;50739;45.670;11.936;2024-01-27T21:12:39;114.40;;;60.83;;
62475;SDS011;50739;45.670;11.936;2024-01-27T21:17:43;117.50;;;63.83;;
62475;SDS011;50739;45.670;11.936;2024-01-27T21:22:48;115.43;;;62.05;;
62475;SDS011;50739;45.670;11.936;2024-01-27T21:27:50;111.72;;;59.75;;
62475;SDS011;50739;45.670;11.936;2024-01-27T21:32:53;109.53;;;60.05;;
62475;SDS011;50739;45.670;11.936;2024-01-27T21:37:58;98.68;;;55.67;;
62475;SDS011;50739;45.670;11.936;2024-01-27T21:43:00;96.05;;;52.60;;
62475;SDS011;50739;45.670;11.936;2024-01-27T21:48:02;94.03;;;51.78;;
62475;SDS011;50739;45.670;11.936;2024-01-27T21:53:08;82.97;;;47.47;;
62475;SDS011;50739;45.670;11.936;2024-01-27T21:58:11;84.90;;;47.77;;
62475;SDS011;50739;45.670;11.936;2024-01-27T22:03:13;81.95;;;47.35;;
62475;SDS011;50739;45.670;11.936;2024-01-27T22:08:17;74.47;;;39.87;;
62475;SDS011;50739;45.670;11.936;2024-01-27T22:13:19;70.47;;;38.85;;
62475;SDS011;50739;45.670;11.936;2024-01-27T22:18:22;63.53;;;36.30;;
62475;SDS011;50739;45.670;11.936;2024-01-27T22:23:25;60.25;;;35.13;;
62475;SDS011;50739;45.670;11.936;2024-01-27T22:28:28;57.55;;;31.92;;
62475;SDS011;50739;45.670;11.936;2024-01-27T22:33:30;54.88;;;32.25;;
62475;SDS011;50739;45.670;11.936;2024-01-27T22:38:34;52.40;;;30.55;;
62475;SDS011;50739;45.670;11.936;2024-01-27T22:43:36;50.50;;;29.77;;
62475;SDS011;50739;45.670;11.936;2024-01-27T22:48:38;47.83;;;26.53;;
62475;SDS011;50739;45.670;11.936;2024-01-27T22:53:43;45.25;;;26.23;;
62475;SDS011;50739;45.670;11.936;2024-01-27T22:58:45;48.30;;;26.60;;
62475;SDS011;50739;45.670;11.936;2024-01-27T23:03:47;46.63;;;26.47;;
62475;SDS011;50739;45.670;11.936;2024-01-27T23:08:51;46.88;;;28.40;;
62475;SDS011;50739;45.670;11.936;2024-01-27T23:13:54;50.95;;;28.63;;
62475;SDS011;50739;45.670;11.936;2024-01-27T23:18:56;52.78;;;30.75;;
62475;SDS011;50739;45.670;11.936;2024-01-27T23:24:00;53.97;;;30.13;;
62475;SDS011;50739;45.670;11.936;2024-01-27T23:29:02;75.95;;;41.60;;
62475;SDS011;50739;45.670;11.936;2024-01-27T23:34:05;77.60;;;43.35;;
62475;SDS011;50739;45.670;11.936;2024-01-27T23:39:09;81.28;;;47.45;;
62475;SDS011;50739;45.670;11.936;2024-01-27T23:44:12;86.13;;;47.10;;
62475;SDS011;50739;45.670;11.936;2024-01-27T23:49:15;93.27;;;51.07;;
62475;SDS011;50739;45.670;11.936;2024-01-27T23:54:18;90.68;;;50.42;;
62475;SDS011;50739;45.670;11.936;2024-01-27T23:59:21;101.47;;;54.45;;
